Time;durP1;ratioP1;P1;durP2;ratioP2;P2;SDS_P1;SDS_P2;PMS_P1;PMS_P2;Temp;Humidity;BMP_temperature;BMP_pressure;BME280_temperature;BME280_humidity;BME280_pressure;Samples;Min_cycle;Max_cycle;Signal;HPM_P1;HPM_P2
2022/09/22 00:00:05;;;;;;;;;;;;;;;5.78;51.13;96312.53;5103726;28;20488;-79
2022/09/22 00:02:30;;;;;;;;;;;;;;;5.53;51.30;96315.44;5106543;28;19976;-79
2022/09/22 00:04:56;;;;;;;;;;;;;;;5.55;49.61;96316.13;5105801;28;20041;-79
2022/09/22 00:07:21;;;;;;;;;;;;;;;5.57;49.05;96311.56;5105865;28;20579;-77
2022/09/22 00:09:47;;;;;;;;;;;;;;;5.71;51.35;96306.91;5106353;28;20016;-80
2022/09/22 00:12:12;;;;;;;;;;;;;;;5.77;49.50;96316.13;5105612;27;19993;-78
2022/09/22 00:14:38;;;;;;;;;;;;;;;5.81;50.78;96312.25;5106264;28;19973;-80
2022/09/22 00:17:03;;;;;;;;;;;;;;;5.83;51.06;96313.81;5105412;28;20194;-77
2022/09/22 00:19:30;;;;;;;;;;;;;;;5.90;52.33;96313.28;5088523;28;20075;-79
2022/09/22 00:21:55;;;;;;;;;;;;;;;5.93;50.29;96315.66;5088874;28;19960;-80
2022/09/22 00:24:23;;;;;;;;;;;;;;;5.95;50.93;96311.09;5105926;28;19994;-77
2022/09/22 00:26:49;;;;;;;;;;;;;;;6.01;52.00;96309.75;5089360;28;19966;-80
2022/09/22 00:29:16;;;;;;;;;;;;;;;6.03;51.94;96315.72;5105513;28;20033;-80
2022/09/22 00:31:41;;;;;;;;;;;;;;;6.05;51.27;96309.31;5105287;28;20512;-78
2022/09/22 00:34:07;;;;;;;;;;;;;;;6.07;51.80;96301.25;5089279;28;19981;-80
2022/09/22 00:36:32;;;;;;;;;;;;;;;6.05;50.74;96305.84;5105575;28;20002;-78
2022/09/22 00:38:58;;;;;;;;;;;;;;;6.07;52.53;96304.75;5105894;28;20335;-80
2022/09/22 00:41:24;;;;;;;;;;;;;;;5.95;48.80;96309.28;5088444;28;19992;-77
2022/09/22 00:44:09;;;;;;;;;;;;;;;5.94;51.33;96302.31;5105231;28;20010;-80
2022/09/22 00:46:35;;;;;;;;;;;;;;;5.88;51.79;96308.13;5105103;28;19991;-80
2022/09/22 00:49:01;;;;;;;;;;;;;;;5.83;50.47;96311.19;5103413;28;19988;-78
2022/09/22 00:51:27;;;;;;;;;;;;;;;5.77;52.34;96311.69;5093034;28;20014;-78
2022/09/22 00:53:52;;;;;;;;;;;;;;;5.72;52.42;96298.84;5096018;28;20261;-78
2022/09/22 00:56:20;;;;;;;;;;;;;;;5.72;52.31;96298.84;5104935;28;19979;-80
2022/09/22 00:58:47;;;;;;;;;;;;;;;5.77;52.24;96295.00;5091160;28;19963;-79
2022/09/22 01:01:14;;;;;;;;;;;;;;;5.78;50.70;96296.69;5087063;28;19984;-79
2022/09/22 01:03:39;;;;;;;;;;;;;;;5.71;49.16;96299.00;5083308;28;19991;-79
2022/09/22 01:06:05;;;;;;;;;;;;;;;5.72;52.09;96292.75;5098477;28;19959;-80
2022/09/22 01:08:30;;;;;;;;;;;;;;;5.69;51.49;96298.28;5087605;28;19977;-77
2022/09/22 01:10:56;;;;;;;;;;;;;;;5.68;51.36;96294.81;5104356;28;19957;-80
2022/09/22 01:13:29;;;;;;;;;;;;;;;5.64;49.63;96290.75;5087544;28;20369;-80
2022/09/22 01:16:04;;;;;;;;;;;;;;;5.60;48.78;96289.34;5071149;28;20038;-81
2022/09/22 01:18:47;;;;;;;;;;;;;;;5.53;49.06;96286.38;5103148;28;19948;-80
2022/09/22 01:21:18;;;;;;;;;;;;;;;5.37;46.67;96281.53;5092715;28;19971;-80
2022/09/22 01:23:55;;;;;;;;;;;;;;;5.33;48.80;96288.06;5085949;28;19971;-80
2022/09/22 01:26:30;;;;;;;;;;;;;;;5.29;50.42;96284.84;5103420;28;19949;-79
2022/09/22 01:29:14;;;;;;;;;;;;;;;5.29;51.63;96279.56;5104591;28;20017;-78
2022/09/22 01:31:42;;;;;;;;;;;;;;;5.32;51.57;96281.09;5103790;28;20383;-80
2022/09/22 01:34:13;;;;;;;;;;;;;;;5.33;51.88;96283.63;5104028;28;19953;-79
2022/09/22 01:36:41;;;;;;;;;;;;;;;5.37;52.58;96286.81;5087288;28;20347;-78
2022/09/22 01:39:06;;;;;;;;;;;;;;;5.38;52.98;96283.25;5085754;28;19940;-78
2022/09/22 01:41:41;;;;;;;;;;;;;;;5.36;51.36;96277.25;5104715;28;19927;-80
2022/09/22 01:44:12;;;;;;;;;;;;;;;5.38;52.12;96283.25;5069745;28;19978;-80
2022/09/22 01:46:37;;;;;;;;;;;;;;;5.31;52.54;96280.25;5087121;28;19946;-79
2022/09/22 01:49:05;;;;;;;;;;;;;;;5.27;53.01;96278.84;5102753;28;19970;-80
2022/09/22 01:51:32;;;;;;;;;;;;;;;5.27;52.79;96272.75;5089721;28;20051;-80
2022/09/22 01:54:06;;;;;;;;;;;;;;;5.29;53.78;96276.91;5091278;28;20001;-79
2022/09/22 01:56:31;;;;;;;;;;;;;;;5.32;53.00;96270.53;5083290;28;20222;-78
2022/09/22 01:58:58;;;;;;;;;;;;;;;5.29;53.26;96270.78;5096649;28;19924;-77
2022/09/22 02:01:25;;;;;;;;;;;;;;;5.28;53.14;96274.41;5086297;28;20406;-78
2022/09/22 02:03:52;;;;;;;;;;;;;;;5.24;51.76;96273.84;5088918;28;19959;-77
2022/09/22 02:06:18;;;;;;;;;;;;;;;5.19;51.42;96274.22;5090418;28;19915;-78
2022/09/22 02:08:47;;;;;;;;;;;;;;;5.16;52.08;96269.19;5103863;28;19927;-80
2022/09/22 02:11:13;;;;;;;;;;;;;;;5.11;52.79;96266.09;5086198;28;19915;-78
2022/09/22 02:13:39;;;;;;;;;;;;;;;5.09;53.72;96260.09;5086769;28;19964;-80
2022/09/22 02:16:05;;;;;;;;;;;;;;;5.08;53.23;96264.56;5085908;28;19954;-77
2022/09/22 02:18:32;;;;;;;;;;;;;;;5.08;53.02;96264.56;5090033;28;19916;-77
2022/09/22 02:20:57;;;;;;;;;;;;;;;5.08;53.14;96263.72;5084560;28;20311;-79
2022/09/22 02:23:22;;;;;;;;;;;;;;;5.05;53.02;96258.66;5102134;28;19920;-80
2022/09/22 02:25:48;;;;;;;;;;;;;;;5.02;52.46;96261.53;5086579;28;19912;-80
2022/09/22 02:28:14;;;;;;;;;;;;;;;5.00;53.99;96255.56;5103171;28;20248;-78
2022/09/22 02:30:40;;;;;;;;;;;;;;;4.96;52.80;96252.31;5085352;28;19919;-80
2022/09/22 02:33:06;;;;;;;;;;;;;;;4.94;53.45;96254.25;5102983;28;20022;-77
2022/09/22 02:35:31;;;;;;;;;;;;;;;4.88;53.15;96250.31;5094967;28;19920;-78
2022/09/22 02:38:06;;;;;;;;;;;;;;;4.88;53.70;96246.84;5085931;28;19930;-80
2022/09/22 02:40:37;;;;;;;;;;;;;;;4.90;55.43;96248.38;5085768;28;19976;-79
2022/09/22 02:43:18;;;;;;;;;;;;;;;4.87;54.33;96239.91;5085706;28;19912;-77
2022/09/22 02:45:49;;;;;;;;;;;;;;;4.85;54.65;96240.03;5102736;28;19916;-79
2022/09/22 02:48:38;;;;;;;;;;;;;;;4.83;53.89;96236.69;5093912;28;19931;-78
2022/09/22 02:51:03;;;;;;;;;;;;;;;4.81;52.66;96228.91;5092485;28;19915;-77
2022/09/22 02:53:29;;;;;;;;;;;;;;;4.76;51.54;96232.88;5085873;28;20414;-78
2022/09/22 02:55:54;;;;;;;;;;;;;;;4.75;51.67;96231.19;5101934;28;20307;-78
2022/09/22 02:58:20;;;;;;;;;;;;;;;4.69;51.57;96225.44;5103156;28;19989;-80
2022/09/22 03:00:45;;;;;;;;;;;;;;;4.65;49.48;96224.03;5085991;28;20203;-80
2022/09/22 03:03:10;;;;;;;;;;;;;;;4.64;51.35;96224.16;5102252;28;19919;-79
2022/09/22 03:05:36;;;;;;;;;;;;;;;4.61;52.10;96227.88;5101648;28;19942;-79
2022/09/22 03:08:01;;;;;;;;;;;;;;;4.65;52.92;96221.41;5086981;28;20415;-80
2022/09/22 03:10:27;;;;;;;;;;;;;;;4.62;53.93;96220.81;5086057;28;20010;-81
2022/09/22 03:12:52;;;;;;;;;;;;;;;4.61;53.89;96222.63;5102009;28;20301;-78
2022/09/22 03:15:17;;;;;;;;;;;;;;;4.61;54.45;96219.97;5087885;28;20403;-79
2022/09/22 03:17:42;;;;;;;;;;;;;;;4.56;54.88;96215.06;5090627;28;20499;-80
2022/09/22 03:20:09;;;;;;;;;;;;;;;4.56;54.00;96222.16;5102079;28;20280;-81
2022/09/22 03:22:34;;;;;;;;;;;;;;;4.57;54.68;96215.91;5085373;28;19957;-80
2022/09/22 03:25:00;;;;;;;;;;;;;;;4.59;56.13;96219.25;5102307;28;20160;-79
2022/09/22 03:27:26;;;;;;;;;;;;;;;4.62;54.46;96212.91;5101670;28;19954;-78
2022/09/22 03:29:51;;;;;;;;;;;;;;;4.61;55.37;96217.34;5102087;28;19927;-78
2022/09/22 03:32:16;;;;;;;;;;;;;;;4.59;54.90;96216.59;5082992;28;19920;-78
2022/09/22 03:34:41;;;;;;;;;;;;;;;4.57;54.71;96214.13;5101768;28;19968;-80
2022/09/22 03:37:07;;;;;;;;;;;;;;;4.56;55.39;96208.97;5071736;28;19979;-80
2022/09/22 03:39:32;;;;;;;;;;;;;;;4.57;55.22;96213.28;5102069;28;20007;-77
2022/09/22 03:41:57;;;;;;;;;;;;;;;4.54;54.95;96209.09;5101560;28;19930;-80
2022/09/22 03:44:25;;;;;;;;;;;;;;;4.56;54.53;96206.34;5101856;28;19920;-78
2022/09/22 03:46:50;;;;;;;;;;;;;;;4.58;53.35;96213.16;5102110;28;19916;-78
2022/09/22 03:49:15;;;;;;;;;;;;;;;4.64;55.56;96211.81;5085274;28;19920;-79
2022/09/22 03:51:41;;;;;;;;;;;;;;;4.66;54.66;96209.88;5101890;28;19915;-79
2022/09/22 03:54:06;;;;;;;;;;;;;;;4.65;54.65;96197.66;5101729;28;19999;-77
2022/09/22 03:56:31;;;;;;;;;;;;;;;4.66;54.52;96201.97;5101445;28;20065;-79
2022/09/22 03:58:57;;;;;;;;;;;;;;;4.68;54.17;96200.03;5101987;28;20039;-79
2022/09/22 04:01:22;;;;;;;;;;;;;;;4.68;55.05;96207.09;5100671;28;20336;-77
2022/09/22 04:03:48;;;;;;;;;;;;;;;4.65;52.96;96197.66;5101229;28;20436;-80
2022/09/22 04:06:13;;;;;;;;;;;;;;;4.65;54.63;96196.81;5100776;28;19927;-78
2022/09/22 04:08:38;;;;;;;;;;;;;;;4.61;53.42;96198.88;5101745;28;20364;-79
2022/09/22 04:11:04;;;;;;;;;;;;;;;4.59;52.80;96187.59;5100372;28;20291;-80
2022/09/22 04:13:29;;;;;;;;;;;;;;;4.56;54.37;96201.88;5084512;28;19920;-79
2022/09/22 04:15:54;;;;;;;;;;;;;;;4.51;52.51;96193.50;5100878;28;19919;-78
2022/09/22 04:18:19;;;;;;;;;;;;;;;4.46;52.93;96187.78;5100988;28;19920;-80
2022/09/22 04:20:45;;;;;;;;;;;;;;;4.42;53.79;96192.47;5093719;28;19976;-79
2022/09/22 04:23:10;;;;;;;;;;;;;;;4.39;52.77;96197.97;5101577;28;20173;-79
2022/09/22 04:25:36;;;;;;;;;;;;;;;4.35;52.83;96187.81;5100624;28;19935;-80
2022/09/22 04:28:01;;;;;;;;;;;;;;;4.34;54.67;96192.25;5101693;28;19916;-77
2022/09/22 04:30:27;;;;;;;;;;;;;;;4.38;55.55;96195.47;5101315;28;19989;-78
2022/09/22 04:32:52;;;;;;;;;;;;;;;4.35;55.17;96199.19;5100778;28;19924;-79
2022/09/22 04:35:17;;;;;;;;;;;;;;;4.35;55.54;96193.09;5100717;28;19915;-79
2022/09/22 04:37:43;;;;;;;;;;;;;;;4.33;55.11;96196.66;5101802;28;20380;-80
2022/09/22 04:40:10;;;;;;;;;;;;;;;4.29;50.72;96194.44;5101111;28;20319;-81
2022/09/22 04:42:36;;;;;;;;;;;;;;;4.18;52.22;96193.50;5101657;28;20014;-80
2022/09/22 04:45:01;;;;;;;;;;;;;;;4.14;51.63;96192.06;5086112;28;20011;-79
2022/09/22 04:47:30;;;;;;;;;;;;;;;4.10;52.21;96195.91;5103852;28;20014;-78
2022/09/22 04:49:55;;;;;;;;;;;;;;;4.12;52.91;96187.88;5103033;28;19942;-80
2022/09/22 04:52:20;;;;;;;;;;;;;;;4.16;52.85;96194.56;5104949;28;20372;-80
2022/09/22 04:54:46;;;;;;;;;;;;;;;4.09;52.40;96191.59;5088481;28;19924;-80
2022/09/22 04:57:11;;;;;;;;;;;;;;;4.07;51.31;96193.50;5103958;28;19956;-78
2022/09/22 04:59:36;;;;;;;;;;;;;;;4.04;53.08;96191.13;5104655;28;19980;-79
2022/09/22 05:02:02;;;;;;;;;;;;;;;4.02;52.42;96195.69;5095337;28;19919;-80
2022/09/22 05:04:27;;;;;;;;;;;;;;;4.04;55.52;96194.59;5085898;28;19924;-79
2022/09/22 05:06:53;;;;;;;;;;;;;;;4.03;53.20;96192.94;5104770;28;19943;-80
2022/09/22 05:09:19;;;;;;;;;;;;;;;4.09;54.06;96199.50;5104927;28;19916;-79
2022/09/22 05:11:46;;;;;;;;;;;;;;;4.12;55.46;96193.97;5085958;28;20425;-80
2022/09/22 05:14:11;;;;;;;;;;;;;;;4.12;54.79;96193.97;5104872;28;20349;-79
2022/09/22 05:16:37;;;;;;;;;;;;;;;4.13;55.53;96197.44;5104137;28;20082;-81
2022/09/22 05:19:02;;;;;;;;;;;;;;;4.11;55.46;96192.31;5104401;28;19967;-79
2022/09/22 05:21:27;;;;;;;;;;;;;;;4.15;55.90;96199.00;5087106;28;19950;-78
2022/09/22 05:23:54;;;;;;;;;;;;;;;4.16;55.74;96197.22;5087022;28;19920;-80
2022/09/22 05:26:20;;;;;;;;;;;;;;;4.18;55.67;96197.91;5104886;28;19946;-80
2022/09/22 05:28:45;;;;;;;;;;;;;;;4.21;55.24;96202.13;5089887;28;19974;-80
2022/09/22 05:31:10;;;;;;;;;;;;;;;4.26;55.77;96194.66;5104062;28;19973;-79
2022/09/22 05:33:35;;;;;;;;;;;;;;;4.30;55.86;96198.72;5104470;28;20273;-78
2022/09/22 05:36:01;;;;;;;;;;;;;;;4.35;55.64;96201.81;5095336;28;20135;-80
2022/09/22 05:38:26;;;;;;;;;;;;;;;4.39;55.90;96197.97;5104174;27;19919;-79
2022/09/22 05:40:51;;;;;;;;;;;;;;;4.43;55.81;96199.41;5103985;28;20065;-79
2022/09/22 05:43:16;;;;;;;;;;;;;;;4.47;52.75;96199.16;5103425;28;20383;-79
2022/09/22 05:45:42;;;;;;;;;;;;;;;4.52;53.67;96208.38;5104548;28;20489;-80
2022/09/22 05:48:08;;;;;;;;;;;;;;;4.56;51.55;96201.06;5103215;27;19997;-80
2022/09/22 05:50:33;;;;;;;;;;;;;;;4.60;51.62;96204.28;5103623;28;20326;-78
2022/09/22 05:53:02;;;;;;;;;;;;;;;4.66;52.54;96194.03;5103836;28;19924;-80
2022/09/22 05:55:27;;;;;;;;;;;;;;;4.76;53.16;96199.41;5103664;28;19920;-80
2022/09/22 05:57:56;;;;;;;;;;;;;;;4.86;52.68;96202.09;5101768;28;19920;-79
2022/09/22 06:00:21;;;;;;;;;;;;;;;4.95;52.71;96196.09;5103482;28;19938;-80
2022/09/22 06:02:46;;;;;;;;;;;;;;;5.05;51.96;96198.78;5102736;28;19912;-80
2022/09/22 06:05:12;;;;;;;;;;;;;;;5.13;51.78;96203.44;5084490;28;19923;-82
2022/09/22 06:07:37;;;;;;;;;;;;;;;5.27;52.84;96206.72;5103365;28;19919;-79
2022/09/22 06:10:02;;;;;;;;;;;;;;;5.48;54.53;96204.88;5103982;28;19916;-79
2022/09/22 06:12:27;;;;;;;;;;;;;;;5.72;53.24;96208.22;5102702;28;19931;-81
2022/09/22 06:14:53;;;;;;;;;;;;;;;5.93;52.89;96202.03;5086715;28;19927;-81
2022/09/22 06:17:18;;;;;;;;;;;;;;;6.08;53.32;96207.75;5102961;28;20529;-79
2022/09/22 06:19:48;;;;;;;;;;;;;;;6.24;52.94;96208.09;5085943;28;19927;-80
2022/09/22 06:22:13;;;;;;;;;;;;;;;6.37;52.65;96207.00;5102888;28;20212;-79
2022/09/22 06:24:39;;;;;;;;;;;;;;;6.54;53.33;96205.53;5086072;28;20419;-82
2022/09/22 06:27:04;;;;;;;;;;;;;;;6.71;53.25;96204.00;5103154;28;20327;-79
2022/09/22 06:29:29;;;;;;;;;;;;;;;6.89;52.64;96203.28;5102938;28;20603;-79
2022/09/22 06:31:54;;;;;;;;;;;;;;;7.02;52.27;96201.19;5102954;28;19924;-81
2022/09/22 06:34:20;;;;;;;;;;;;;;;7.21;50.36;96203.97;5102958;28;20618;-81
2022/09/22 06:36:45;;;;;;;;;;;;;;;7.37;51.61;96206.00;5103685;28;20374;-73
2022/09/22 06:39:11;;;;;;;;;;;;;;;7.60;52.23;96203.84;5102130;28;19959;-73
2022/09/22 06:41:36;;;;;;;;;;;;;;;7.83;51.96;96203.53;5092482;28;20014;-71
2022/09/22 06:44:01;;;;;;;;;;;;;;;7.90;52.45;96203.78;5102998;28;20176;-74
2022/09/22 06:46:27;;;;;;;;;;;;;;;8.02;51.35;96205.25;5101334;28;20335;-75
2022/09/22 06:48:56;;;;;;;;;;;;;;;8.17;51.10;96207.41;5078250;28;20058;-74
2022/09/22 06:51:22;;;;;;;;;;;;;;;8.36;49.75;96200.31;5100150;28;20377;-74
2022/09/22 06:53:47;;;;;;;;;;;;;;;8.55;49.72;96202.84;5096932;28;20026;-76
2022/09/22 06:56:13;;;;;;;;;;;;;;;8.76;49.93;96199.03;5101475;28;19996;-76
2022/09/22 06:58:38;;;;;;;;;;;;;;;8.90;49.01;96194.16;5101093;28;20273;-74
2022/09/22 07:01:06;;;;;;;;;;;;;;;9.12;48.41;96198.22;5098374;28;20229;-75
2022/09/22 07:03:32;;;;;;;;;;;;;;;9.31;46.84;96199.00;5101174;28;20031;-76
2022/09/22 07:05:59;;;;;;;;;;;;;;;9.51;47.91;96194.31;5098535;28;19980;-74
2022/09/22 07:08:25;;;;;;;;;;;;;;;9.66;46.98;96194.56;5101067;28;20017;-76
2022/09/22 07:10:51;;;;;;;;;;;;;;;9.85;46.43;96193.50;5100952;28;20355;-74
2022/09/22 07:13:17;;;;;;;;;;;;;;;10.03;46.25;96195.22;5088562;28;20057;-76
2022/09/22 07:15:43;;;;;;;;;;;;;;;10.25;45.50;96192.16;5099228;28;20456;-75
2022/09/22 07:18:09;;;;;;;;;;;;;;;10.39;45.18;96186.22;5101130;28;19967;-74
2022/09/22 07:20:34;;;;;;;;;;;;;;;10.55;44.71;96185.44;5101629;28;20011;-73
2022/09/22 07:22:59;;;;;;;;;;;;;;;10.67;44.33;96188.59;5100167;27;20082;-75
2022/09/22 07:25:27;;;;;;;;;;;;;;;10.70;43.78;96193.59;5101883;28;19996;-76
2022/09/22 07:27:53;;;;;;;;;;;;;;;10.94;43.71;96193.78;5099494;28;19988;-74
2022/09/22 07:30:20;;;;;;;;;;;;;;;11.20;42.12;96192.81;5100409;28;20666;-76
2022/09/22 07:32:45;;;;;;;;;;;;;;;11.37;38.89;96197.13;5099285;28;19998;-74
2022/09/22 07:35:11;;;;;;;;;;;;;;;11.23;37.17;96203.13;5101175;28;19980;-76
2022/09/22 07:37:40;;;;;;;;;;;;;;;11.28;40.97;96197.31;5100439;28;20059;-73
2022/09/22 07:40:06;;;;;;;;;;;;;;;11.09;37.36;96200.13;5101307;28;19984;-76
2022/09/22 07:42:31;;;;;;;;;;;;;;;11.52;40.70;96204.41;5099230;28;20385;-75
2022/09/22 07:45:11;;;;;;;;;;;;;;;11.66;40.11;96197.56;5101232;28;20215;-75
2022/09/22 07:50:21;;;;;;;;;;;;;;;12.25;36.70;96198.22;5100660;28;20633;-75
2022/09/22 07:52:51;;;;;;;;;;;;;;;12.02;38.95;96202.47;5100464;28;20004;-75
2022/09/22 07:55:16;;;;;;;;;;;;;;;12.19;38.83;96209.56;5095737;28;20026;-74
2022/09/22 07:57:41;;;;;;;;;;;;;;;12.33;38.47;96210.69;5101177;28;20314;-75
2022/09/22 08:00:07;;;;;;;;;;;;;;;12.49;37.96;96204.44;5101398;28;19988;-73
2022/09/22 08:02:32;;;;;;;;;;;;;;;12.65;37.65;96204.31;5100780;28;19972;-73
2022/09/22 08:05:00;;;;;;;;;;;;;;;12.87;36.83;96201.00;5101309;28;20073;-75
2022/09/22 08:07:25;;;;;;;;;;;;;;;12.82;37.02;96209.56;5099593;28;20296;-74
2022/09/22 08:09:50;;;;;;;;;;;;;;;12.81;37.03;96202.53;5100070;28;19968;-77
2022/09/22 08:12:16;;;;;;;;;;;;;;;13.09;36.09;96204.69;5100358;28;20214;-76
2022/09/22 08:14:41;;;;;;;;;;;;;;;13.24;36.09;96201.25;5100625;28;20013;-74
2022/09/22 08:17:11;;;;;;;;;;;;;;;13.38;35.79;96203.13;5100593;28;19992;-76
2022/09/22 08:19:36;;;;;;;;;;;;;;;13.77;33.18;96211.13;5100017;28;20392;-74
2022/09/22 08:22:01;;;;;;;;;;;;;;;13.61;33.04;96206.75;5104980;28;19980;-74
2022/09/22 08:24:26;;;;;;;;;;;;;;;13.37;35.68;96204.16;5104954;28;20071;-75
2022/09/22 08:26:53;;;;;;;;;;;;;;;13.81;33.44;96205.19;5105113;28;19979;-76
2022/09/22 08:29:19;;;;;;;;;;;;;;;13.62;34.67;96203.91;5100910;28;20441;-77
2022/09/22 08:31:45;;;;;;;;;;;;;;;13.86;34.90;96203.81;5104437;28;19996;-73
2022/09/22 08:34:12;;;;;;;;;;;;;;;13.91;34.64;96207.63;5092554;28;20427;-77
2022/09/22 08:36:38;;;;;;;;;;;;;;;14.08;34.07;96207.44;5103963;28;19988;-76
2022/09/22 08:39:03;;;;;;;;;;;;;;;14.58;32.85;96191.53;5103417;28;19968;-74
2022/09/22 08:41:38;;;;;;;;;;;;;;;13.85;31.90;96208.34;5103878;28;20017;-74
2022/09/22 08:44:24;;;;;;;;;;;;;;;12.02;34.70;96210.47;5100159;28;20081;-74
2022/09/22 08:46:50;;;;;;;;;;;;;;;13.60;34.63;96205.09;5103362;28;20102;-73
2022/09/22 08:52:02;;;;;;;;;;;;;;;14.26;33.08;96208.88;5103275;28;20388;-74
2022/09/22 08:54:31;;;;;;;;;;;;;;;14.77;32.49;96202.69;5086992;28;20388;-75
2022/09/22 08:56:59;;;;;;;;;;;;;;;14.57;30.57;96207.81;5102993;28;19990;-73
2022/09/22 08:59:28;;;;;;;;;;;;;;;14.49;32.92;96208.75;5103213;28;19996;-73
2022/09/22 09:02:00;;;;;;;;;;;;;;;14.85;30.03;96209.78;5085253;28;20501;-74
2022/09/22 09:04:44;;;;;;;;;;;;;;;15.02;32.83;96214.91;5101777;28;20467;-76
2022/09/22 09:07:12;;;;;;;;;;;;;;;15.03;31.77;96213.88;5101437;28;19968;-74
2022/09/22 09:09:40;;;;;;;;;;;;;;;15.08;30.61;96211.44;5094059;28;19997;-75
2022/09/22 09:12:05;;;;;;;;;;;;;;;15.39;30.12;96218.31;5103073;28;19988;-75
2022/09/22 09:14:46;;;;;;;;;;;;;;;15.23;29.51;96211.38;5102174;28;19999;-76
2022/09/22 09:17:19;;;;;;;;;;;;;;;15.19;32.05;96207.41;5102014;28;20057;-74
2022/09/22 09:19:49;;;;;;;;;;;;;;;15.38;29.10;96208.59;5092452;28;20264;-76
2022/09/22 09:22:18;;;;;;;;;;;;;;;15.49;31.71;96208.06;5087425;28;19972;-76
2022/09/22 09:24:47;;;;;;;;;;;;;;;15.42;30.15;96209.88;5102423;28;20009;-73
2022/09/22 09:27:14;;;;;;;;;;;;;;;15.78;29.67;96215.31;5100397;28;19972;-75
2022/09/22 09:29:43;;;;;;;;;;;;;;;15.48;28.14;96210.94;5091365;28;20235;-75
2022/09/22 09:32:32;;;;;;;;;;;;;;;15.51;29.16;96221.28;5099476;28;19990;-75
2022/09/22 09:34:57;;;;;;;;;;;;;;;15.48;31.28;96213.63;5093072;28;20037;-71
2022/09/22 09:37:23;;;;;;;;;;;;;;;15.78;31.24;96215.31;5090338;28;19992;-72
2022/09/22 09:39:48;;;;;;;;;;;;;;;16.56;29.03;96206.22;5103681;28;20023;-78
2022/09/22 09:42:22;;;;;;;;;;;;;;;16.43;28.98;96206.16;5087268;28;20076;-80
2022/09/22 09:44:52;;;;;;;;;;;;;;;16.74;28.99;96207.50;5103438;28;19991;-81
2022/09/22 09:47:40;;;;;;;;;;;;;;;16.83;26.20;96211.63;5103040;28;20257;-79
2022/09/22 09:50:05;;;;;;;;;;;;;;;16.00;28.24;96203.47;5064084;28;20460;-82
2022/09/22 09:52:31;;;;;;;;;;;;;;;16.33;28.68;96206.50;5103221;28;20078;-80
2022/09/22 09:54:56;;;;;;;;;;;;;;;16.55;28.45;96204.53;5086778;28;19983;-80
2022/09/22 09:57:21;;;;;;;;;;;;;;;16.68;29.17;96203.75;5089538;28;20600;-80
2022/09/22 10:02:35;;;;;;;;;;;;;;;17.15;29.04;96192.28;5091253;28;20075;-77
2022/09/22 10:05:01;;;;;;;;;;;;;;;17.01;28.16;96197.63;5084239;28;19992;-78
2022/09/22 10:07:27;;;;;;;;;;;;;;;16.96;27.70;96194.69;5096307;28;19999;-79
2022/09/22 10:09:52;;;;;;;;;;;;;;;17.62;25.32;96192.25;5092563;28;20382;-79
2022/09/22 10:12:25;;;;;;;;;;;;;;;17.34;27.40;96192.47;5101576;28;19994;-81
2022/09/22 10:14:51;;;;;;;;;;;;;;;17.63;24.22;96185.00;5098288;28;19983;-81
2022/09/22 10:17:23;;;;;;;;;;;;;;;17.82;25.08;96193.25;5093571;28;20065;-70
2022/09/22 10:19:49;;;;;;;;;;;;;;;18.12;26.93;96184.72;5100802;28;19987;-77
2022/09/22 10:22:14;;;;;;;;;;;;;;;17.55;24.02;96188.75;5102907;27;20169;-81
2022/09/22 10:24:40;;;;;;;;;;;;;;;17.63;26.69;96182.31;5102483;28;19992;-80
2022/09/22 10:27:05;;;;;;;;;;;;;;;17.79;25.58;96184.53;5093509;28;20008;-80
2022/09/22 10:29:31;;;;;;;;;;;;;;;17.91;25.31;96174.00;5089413;28;19990;-80
2022/09/22 10:32:06;;;;;;;;;;;;;;;17.92;25.15;96175.63;5101206;28;19996;-77
2022/09/22 10:34:35;;;;;;;;;;;;;;;17.87;26.17;96172.75;5102631;28;19983;-80
2022/09/22 10:37:00;;;;;;;;;;;;;;;17.32;28.00;96173.84;5097617;28;20424;-79
2022/09/22 10:39:46;;;;;;;;;;;;;;;17.65;27.90;96177.56;5100949;28;20248;-80
2022/09/22 10:42:22;;;;;;;;;;;;;;;18.16;24.19;96169.78;5101601;28;20021;-80
2022/09/22 10:44:47;;;;;;;;;;;;;;;18.26;24.24;96170.13;5091998;28;20056;-79
2022/09/22 10:47:12;;;;;;;;;;;;;;;18.29;24.78;96166.19;5102246;28;20004;-78
2022/09/22 10:49:38;;;;;;;;;;;;;;;18.05;24.83;96161.31;5086382;28;20374;-80
2022/09/22 10:52:06;;;;;;;;;;;;;;;18.36;24.31;96156.19;5101745;28;20518;-81
2022/09/22 10:54:50;;;;;;;;;;;;;;;17.98;27.38;96155.09;5102485;28;19995;-78
2022/09/22 10:57:26;;;;;;;;;;;;;;;18.26;23.22;96159.34;5101743;28;20003;-78
2022/09/22 11:00:01;;;;;;;;;;;;;;;18.13;24.35;96159.41;5085245;28;19988;-77
2022/09/22 11:02:45;;;;;;;;;;;;;;;18.07;22.55;96150.31;5095429;28;20487;-79
2022/09/22 11:12:15;;;;;;;;;;;;;;;18.46;24.34;96153.03;5101658;28;20033;-79
2022/09/22 11:14:03;;;;;;;;;;;;;;;18.65;24.88;96147.78;5100879;28;20014;-75
2022/09/22 11:16:33;;;;;;;;;;;;;;;17.90;23.41;96149.97;5084912;28;19996;-80
2022/09/22 11:18:58;;;;;;;;;;;;;;;17.47;27.18;96145.91;5089514;28;19972;-76
2022/09/22 11:21:33;;;;;;;;;;;;;;;18.30;25.67;96141.72;5101239;28;19989;-76
2022/09/22 11:24:04;;;;;;;;;;;;;;;18.82;24.33;96134.59;5110599;28;20054;-76
2022/09/22 11:26:39;;;;;;;;;;;;;;;18.62;24.01;96129.31;5120601;28;19979;-75
2022/09/22 11:29:07;;;;;;;;;;;;;;;19.00;25.37;96135.72;5125241;28;20204;-75
2022/09/22 11:31:52;;;;;;;;;;;;;;;18.96;26.21;96135.31;5125637;28;20023;-78
2022/09/22 11:34:23;;;;;;;;;;;;;;;19.32;24.99;96136.53;5114281;28;19992;-76
2022/09/22 11:36:51;;;;;;;;;;;;;;;19.66;23.90;96133.50;5113546;28;19994;-75
2022/09/22 11:39:26;;;;;;;;;;;;;;;19.57;23.43;96137.50;5121583;28;19978;-79
2022/09/22 11:41:58;;;;;;;;;;;;;;;19.39;23.61;96128.34;5110396;28;20139;-75
2022/09/22 11:44:45;;;;;;;;;;;;;;;20.16;19.37;96131.69;5089695;28;19995;-76
2022/09/22 11:47:25;;;;;;;;;;;;;;;20.30;20.70;96137.75;5108206;28;19982;-76
2022/09/22 11:49:53;;;;;;;;;;;;;;;19.88;20.39;96124.91;5100348;28;19966;-77
2022/09/22 11:52:26;;;;;;;;;;;;;;;20.02;19.50;96122.91;5091146;28;20233;-79
2022/09/22 11:55:13;;;;;;;;;;;;;;;19.26;20.63;96123.88;5115648;28;20030;-77
2022/09/22 11:57:39;;;;;;;;;;;;;;;19.14;23.16;96122.94;5088611;28;19987;-77
2022/09/22 12:00:11;;;;;;;;;;;;;;;19.17;21.24;96109.03;5104982;28;19996;-76
2022/09/22 12:02:41;;;;;;;;;;;;;;;19.43;19.70;96112.53;5112507;28;19998;-78
2022/09/22 12:05:12;;;;;;;;;;;;;;;17.52;21.49;96114.63;5095352;28;20087;-76
2022/09/22 12:07:43;;;;;;;;;;;;;;;18.75;26.20;96112.25;5088188;28;19991;-78
2022/09/22 12:10:21;;;;;;;;;;;;;;;19.07;25.84;96104.13;5094364;28;20191;-76
2022/09/22 12:12:49;;;;;;;;;;;;;;;19.41;19.98;96098.44;5107231;27;20000;-78
2022/09/22 12:15:19;;;;;;;;;;;;;;;19.32;19.86;96095.19;5099119;28;19965;-77
2022/09/22 12:18:00;;;;;;;;;;;;;;;17.56;21.95;96103.41;5092382;28;19960;-78
2022/09/22 12:20:28;;;;;;;;;;;;;;;18.12;27.05;96096.59;5107381;28;19993;-81
2022/09/22 12:22:54;;;;;;;;;;;;;;;18.86;25.14;96091.84;5108262;28;20691;-80
2022/09/22 12:25:39;;;;;;;;;;;;;;;18.60;22.53;96088.28;5102687;27;20014;-79
2022/09/22 12:28:04;;;;;;;;;;;;;;;18.80;23.35;96085.47;5106820;27;20022;-77
2022/09/22 12:30:29;;;;;;;;;;;;;;;19.08;22.29;96079.59;5101413;28;19968;-78
2022/09/22 12:32:55;;;;;;;;;;;;;;;19.54;21.39;96086.66;5103134;28;20071;-80
2022/09/22 12:35:24;;;;;;;;;;;;;;;19.84;23.55;96075.09;5107068;28;20022;-78
2022/09/22 12:37:51;;;;;;;;;;;;;;;20.36;20.72;96073.81;5090993;28;20165;-79
2022/09/22 12:40:17;;;;;;;;;;;;;;;20.78;22.31;96081.16;5074146;28;20005;-79
2022/09/22 12:42:43;;;;;;;;;;;;;;;21.19;22.39;96080.47;5091011;28;19972;-80
2022/09/22 12:45:27;;;;;;;;;;;;;;;21.60;23.17;96078.72;5089436;28;19989;-79
2022/09/22 12:47:52;;;;;;;;;;;;;;;22.24;18.67;96076.19;5090591;28;20034;-79
2022/09/22 12:50:30;;;;;;;;;;;;;;;23.00;16.72;96068.81;5089912;28;19965;-81
2022/09/22 12:53:03;;;;;;;;;;;;;;;21.76;17.47;96070.91;5107524;28;20023;-79
2022/09/22 12:55:28;;;;;;;;;;;;;;;23.22;18.81;96057.22;5107577;27;20117;-77
2022/09/22 12:57:54;;;;;;;;;;;;;;;25.97;17.96;96048.06;5091256;28;20038;-79
2022/09/22 13:00:35;;;;;;;;;;;;;;;28.11;13.77;96054.22;5072041;28;20143;-79
2022/09/22 13:03:00;;;;;;;;;;;;;;;28.09;13.63;96045.47;5100596;28;20171;-80
2022/09/22 13:05:26;;;;;;;;;;;;;;;30.50;12.80;96051.94;5090278;28;19966;-80
2022/09/22 13:07:57;;;;;;;;;;;;;;;32.74;10.14;96044.94;5103571;27;19920;-80
2022/09/22 13:10:26;;;;;;;;;;;;;;;32.86;10.64;96045.19;5103398;28;20338;-80